Time;durP1;ratioP1;P1;durP2;ratioP2;P2;SDS_P1;SDS_P2;PMS_P1;PMS_P2;Temp;Humidity;BMP_temperature;BMP_pressure;BME280_temperature;BME280_humidity;BME280_pressure;Samples;Min_cycle;Max_cycle;Signal;HPM_P1;HPM_P2
2022/01/02 00:00:06;;;;;;;11.63;8.40;;;10.30;95.90;;;;;;5154799;27;20056;-80
2022/01/02 00:02:33;;;;;;;16.30;9.00;;;10.30;95.90;;;;;;5155006;27;20038;-80
2022/01/02 00:05:13;;;;;;;14.93;9.35;;;10.30;95.80;;;;;;5137467;27;20049;-78
2022/01/02 00:07:44;;;;;;;14.25;8.98;;;10.30;95.80;;;;;;5154665;27;20046;-78
2022/01/02 00:10:12;;;;;;;13.35;9.07;;;10.30;95.80;;;;;;5154539;27;20038;-82
2022/01/02 00:12:43;;;;;;;14.75;8.30;;;10.30;95.90;;;;;;5137594;27;20391;-80
2022/01/02 00:15:11;;;;;;;12.25;8.32;;;10.30;96.00;;;;;;5154557;27;20046;-79
2022/01/02 00:17:38;;;;;;;14.85;8.48;;;10.30;95.90;;;;;;5157397;27;20061;-80
2022/01/02 00:20:11;;;;;;;14.27;9.85;;;10.30;95.90;;;;;;5140604;27;20042;-79
2022/01/02 00:22:40;;;;;;;13.13;8.55;;;10.30;95.90;;;;;;5124487;27;20094;-81
2022/01/02 00:25:22;;;;;;;14.07;9.07;;;10.30;95.90;;;;;;5157685;27;20119;-78
2022/01/02 00:27:49;;;;;;;14.27;8.52;;;10.30;95.90;;;;;;5157818;27;20078;-78
2022/01/02 00:30:16;;;;;;;16.92;8.35;;;10.30;96.00;;;;;;5157622;27;20489;-81
2022/01/02 00:32:43;;;;;;;16.58;8.95;;;10.30;96.00;;;;;;5157616;27;20125;-80
2022/01/02 00:35:09;;;;;;;17.65;9.68;;;10.20;96.00;;;;;;5157513;27;20038;-80
2022/01/02 00:37:35;;;;;;;14.75;9.35;;;10.30;95.90;;;;;;5157613;27;20070;-79
2022/01/02 00:40:02;;;;;;;18.88;9.15;;;10.30;95.70;;;;;;5123145;27;20085;-81
2022/01/02 00:42:35;;;;;;;15.73;9.52;;;10.20;95.90;;;;;;5157501;27;20094;-80
2022/01/02 00:45:03;;;;;;;14.65;8.88;;;10.20;96.00;;;;;;5157473;27;20074;-78
2022/01/02 00:47:35;;;;;;;15.93;8.85;;;10.20;96.20;;;;;;5157200;27;20125;-78
2022/01/02 00:50:11;;;;;;;21.25;10.07;;;10.20;96.20;;;;;;5157564;27;20030;-80
2022/01/02 00:52:46;;;;;;;20.75;10.23;;;10.20;96.30;;;;;;5157600;27;20030;-80
2022/01/02 00:55:12;;;;;;;;;;;10.20;96.10;;;;;;5140817;27;20381;-80
2022/01/02 00:57:41;;;;;;;12.93;9.10;;;10.20;96.00;;;;;;5157311;27;20013;-79
2022/01/02 01:00:15;;;;;;;15.45;9.13;;;10.20;96.10;;;;;;5157333;27;20042;-80
2022/01/02 01:02:46;;;;;;;17.17;9.93;;;10.20;96.30;;;;;;5157254;27;20121;-79
2022/01/02 01:05:24;;;;;;;19.50;9.82;;;10.20;96.40;;;;;;5157173;27;20042;-80
2022/01/02 01:07:54;;;;;;;16.85;10.38;;;10.20;96.40;;;;;;5157432;27;20117;-79
2022/01/02 01:10:22;;;;;;;17.05;10.05;;;10.20;96.40;;;;;;5157099;27;20026;-79
2022/01/02 01:12:53;;;;;;;19.38;10.05;;;10.20;96.30;;;;;;5157025;27;20075;-78
2022/01/02 01:15:20;;;;;;;19.08;10.07;;;10.20;96.40;;;;;;5139763;27;20038;-80
2022/01/02 01:17:46;;;;;;;18.25;10.27;;;10.10;96.60;;;;;;5139620;27;20097;-81
2022/01/02 01:20:14;;;;;;;18.02;10.43;;;10.10;96.60;;;;;;5157259;27;20068;-79
2022/01/02 01:22:48;;;;;;;15.07;10.23;;;10.10;96.70;;;;;;5156874;27;20038;-79
2022/01/02 01:25:17;;;;;;;16.30;10.30;;;10.10;96.50;;;;;;5157025;27;20043;-79
2022/01/02 01:27:48;;;;;;;17.88;10.60;;;10.10;96.80;;;;;;5156872;27;20034;-80
2022/01/02 01:30:16;;;;;;;15.27;10.70;;;10.10;97.00;;;;;;5156748;27;20045;-80
2022/01/02 01:32:42;;;;;;;20.27;11.82;;;10.10;97.00;;;;;;5139850;27;20065;-80
2022/01/02 01:35:08;;;;;;;18.38;10.48;;;10.10;96.70;;;;;;5139748;27;20520;-80
2022/01/02 01:37:34;;;;;;;19.33;12.20;;;10.10;96.70;;;;;;5160674;27;20042;-81
2022/01/02 01:40:00;;;;;;;18.50;12.00;;;10.20;97.10;;;;;;5143730;27;20125;-79
2022/01/02 01:42:41;;;;;;;20.20;11.88;;;10.10;97.00;;;;;;5161034;27;20034;-79
2022/01/02 01:47:53;;;;;;;13.48;10.25;;;10.20;96.90;;;;;;5161032;27;20052;-80
2022/01/02 01:50:20;;;;;;;18.45;11.85;;;10.20;97.00;;;;;;5160919;27;20086;-79
2022/01/02 01:52:46;;;;;;;16.45;10.50;;;10.20;97.10;;;;;;5161075;27;20040;-80
2022/01/02 01:55:12;;;;;;;22.17;11.52;;;10.20;97.10;;;;;;5143580;27;20385;-79
2022/01/02 01:57:40;;;;;;;17.48;11.48;;;10.20;97.20;;;;;;5160754;27;20098;-77
2022/01/02 02:00:16;;;;;;;20.60;12.85;;;10.20;97.00;;;;;;5160715;27;20038;-79
2022/01/02 02:02:43;;;;;;;22.80;12.75;;;10.30;97.00;;;;;;5160939;27;20046;-78
2022/01/02 02:05:09;;;;;;;25.55;14.90;;;10.20;97.60;;;;;;5160848;27;20049;-80
2022/01/02 02:07:42;;;;;;;24.23;14.02;;;10.20;97.70;;;;;;5160441;27;20042;-78
2022/01/02 02:12:51;;;;;;;25.02;14.95;;;10.20;97.70;;;;;;5160503;27;20050;-79
2022/01/02 02:15:17;;;;;;;29.50;16.70;;;10.20;97.80;;;;;;5160417;27;20045;-79
2022/01/02 02:17:45;;;;;;;28.20;15.20;;;10.10;98.20;;;;;;5139510;27;20043;-80
2022/01/02 02:20:14;;;;;;;26.05;14.90;;;10.10;98.10;;;;;;5156775;27;20042;-79
2022/01/02 02:22:42;;;;;;;23.52;14.20;;;10.10;98.30;;;;;;5157082;27;20394;-80
2022/01/02 02:25:11;;;;;;;29.83;16.50;;;10.10;98.10;;;;;;5139692;27;20083;-79
2022/01/02 02:27:36;;;;;;;27.25;14.48;;;10.20;97.90;;;;;;5139319;27;20043;-80
2022/01/02 02:30:04;;;;;;;27.95;13.57;;;10.10;98.20;;;;;;5122187;27;20030;-80
2022/01/02 02:32:30;;;;;;;24.33;13.65;;;10.00;98.20;;;;;;5156631;27;20070;-80
2022/01/02 02:34:56;;;;;;;24.55;13.95;;;10.00;98.10;;;;;;5139358;27;20115;-80
2022/01/02 02:37:21;;;;;;;24.17;12.45;;;10.10;97.90;;;;;;5156774;27;20164;-79
2022/01/02 02:39:47;;;;;;;27.30;14.52;;;10.00;98.00;;;;;;5156376;27;20038;-80
2022/01/02 02:42:26;;;;;;;22.38;13.20;;;10.00;98.20;;;;;;5156398;27;20112;-79
2022/01/02 02:44:59;;;;;;;25.05;14.13;;;10.00;98.40;;;;;;5156652;27;20043;-80
2022/01/02 02:50:08;;;;;;;26.75;15.10;;;10.00;98.30;;;;;;5141614;27;20043;-77
2022/01/02 02:52:45;;;;;;;26.00;14.50;;;10.00;98.20;;;;;;5139177;27;20042;-78
2022/01/02 02:55:10;;;;;;;24.75;15.00;;;10.00;98.30;;;;;;5156537;27;20095;-77
2022/01/02 02:57:38;;;;;;;28.65;14.38;;;10.00;98.20;;;;;;5156112;27;20038;-78
2022/01/02 03:00:05;;;;;;;26.55;17.33;;;10.00;98.20;;;;;;5156027;27;20050;-77
2022/01/02 03:02:31;;;;;;;27.83;16.42;;;10.00;98.50;;;;;;5156059;27;20047;-78
2022/01/02 03:04:57;;;;;;;32.75;17.90;;;10.00;98.80;;;;;;5139034;27;20045;-78
2022/01/02 03:07:22;;;;;;;24.83;15.02;;;10.00;98.90;;;;;;5138630;27;20095;-78
2022/01/02 03:09:50;;;;;;;32.88;18.75;;;10.00;98.60;;;;;;5156123;27;20061;-77
2022/01/02 03:12:18;;;;;;;28.60;16.30;;;10.00;98.60;;;;;;5138984;27;20402;-79
2022/01/02 03:14:44;;;;;;;25.25;16.55;;;10.00;98.70;;;;;;5156018;27;20061;-77
2022/01/02 03:17:09;;;;;;;29.35;17.00;;;10.00;98.60;;;;;;5155691;27;20039;-79
2022/01/02 03:19:36;;;;;;;32.67;18.40;;;10.10;98.60;;;;;;5155453;27;20047;-77
2022/01/02 03:22:02;;;;;;;30.90;18.45;;;10.10;98.50;;;;;;5155619;27;20046;-79
2022/01/02 03:24:28;;;;;;;26.85;15.18;;;10.10;98.80;;;;;;5155881;27;20390;-78
2022/01/02 03:26:53;;;;;;;31.67;16.92;;;10.10;98.50;;;;;;5155464;27;20038;-79
2022/01/02 03:29:19;;;;;;;34.33;17.02;;;10.10;98.90;;;;;;5155700;27;20034;-78
2022/01/02 03:31:45;;;;;;;34.50;16.83;;;10.10;98.70;;;;;;5155475;27;20070;-77
2022/01/02 03:34:10;;;;;;;32.00;16.77;;;10.10;98.70;;;;;;5138160;27;20375;-78
2022/01/02 03:36:36;;;;;;;33.45;17.05;;;10.10;98.70;;;;;;5155355;27;20043;-78
2022/01/02 03:39:03;;;;;;;29.00;15.52;;;10.10;98.70;;;;;;5138050;27;20039;-78
2022/01/02 03:41:28;;;;;;;27.83;14.73;;;10.20;98.50;;;;;;5138013;27;20085;-76
2022/01/02 03:43:54;;;;;;;29.00;14.05;;;10.10;98.50;;;;;;5138414;27;20078;-78
2022/01/02 03:46:20;;;;;;;32.08;14.55;;;10.10;98.80;;;;;;5155100;27;20501;-79
2022/01/02 03:48:46;;;;;;;29.23;14.75;;;10.10;98.80;;;;;;5137759;27;20039;-81
2022/01/02 03:51:11;;;;;;;29.17;14.93;;;10.10;98.70;;;;;;5155005;27;20412;-79
2022/01/02 03:53:37;;;;;;;31.27;16.35;;;10.10;99.00;;;;;;5120911;27;20077;-79
2022/01/02 03:56:03;;;;;;;37.55;16.20;;;10.20;98.90;;;;;;5137990;27;20038;-80
2022/01/02 03:58:29;;;;;;;30.58;15.95;;;10.20;99.10;;;;;;5120390;27;20513;-80
2022/01/02 04:00:55;;;;;;;29.52;13.93;;;10.10;99.00;;;;;;5154804;27;20070;-79
2022/01/02 04:03:21;;;;;;;26.88;14.18;;;10.20;98.80;;;;;;5154799;27;20085;-80
2022/01/02 04:05:46;;;;;;;32.20;14.23;;;10.30;98.90;;;;;;5154669;27;20126;-78
2022/01/02 04:08:12;;;;;;;27.88;12.68;;;10.30;98.70;;;;;;5154760;27;20041;-78
2022/01/02 04:10:38;;;;;;;25.10;14.35;;;10.40;98.60;;;;;;5154609;27;20090;-78
2022/01/02 04:13:06;;;;;;;26.77;15.25;;;10.30;98.50;;;;;;5154674;27;20034;-79
2022/01/02 04:15:32;;;;;;;34.65;16.27;;;10.30;98.70;;;;;;5154575;27;20041;-79
2022/01/02 04:17:58;;;;;;;27.42;14.40;;;10.30;98.80;;;;;;5137138;27;20061;-79
2022/01/02 04:20:24;;;;;;;28.63;16.23;;;10.30;99.00;;;;;;5137080;27;20042;-80
2022/01/02 04:22:49;;;;;;;30.63;15.43;;;10.40;98.80;;;;;;5120453;27;20043;-78
2022/01/02 04:25:15;;;;;;;25.35;14.30;;;10.40;98.60;;;;;;5154542;27;20038;-78
2022/01/02 04:27:41;;;;;;;29.92;15.95;;;10.40;98.70;;;;;;5154239;27;20138;-79
2022/01/02 04:30:10;;;;;;;28.30;15.90;;;10.40;99.00;;;;;;5137194;27;20034;-78
2022/01/02 04:32:35;;;;;;;29.65;16.55;;;10.40;99.10;;;;;;5154200;27;20076;-79
2022/01/02 04:35:01;;;;;;;37.15;16.30;;;10.40;99.00;;;;;;5154442;27;20039;-78
2022/01/02 04:37:27;;;;;;;25.08;14.93;;;10.50;99.00;;;;;;5154494;27;20081;-77
2022/01/02 04:39:53;;;;;;;30.88;17.10;;;10.50;98.90;;;;;;5136828;27;20497;-78
2022/01/02 04:42:19;;;;;;;30.00;16.58;;;10.40;99.00;;;;;;5136815;27;20046;-78
2022/01/02 04:44:44;;;;;;;27.80;15.23;;;10.50;98.90;;;;;;5136964;27;20043;-78
2022/01/02 04:47:10;;;;;;;32.22;16.83;;;10.50;99.00;;;;;;5136612;27;20038;-79
2022/01/02 04:49:36;;;;;;;27.15;15.05;;;10.50;98.90;;;;;;5153853;27;20066;-77
2022/01/02 04:52:02;;;;;;;36.38;16.63;;;10.40;98.90;;;;;;5136626;27;20037;-79
2022/01/02 04:54:28;;;;;;;38.45;17.42;;;10.40;99.10;;;;;;5136573;27;20034;-77
2022/01/02 04:56:53;;;;;;;28.27;16.23;;;10.40;99.10;;;;;;5136568;27;20038;-78
2022/01/02 04:59:19;;;;;;;36.90;16.30;;;10.40;99.20;;;;;;5153669;27;20050;-77
2022/01/02 05:01:45;;;;;;;32.85;15.85;;;10.30;99.10;;;;;;5153681;27;20129;-78
2022/01/02 05:04:11;;;;;;;27.75;15.30;;;10.30;99.10;;;;;;5153689;27;20054;-78
2022/01/02 05:06:37;;;;;;;24.83;14.02;;;10.30;99.30;;;;;;5153625;27;20039;-79
2022/01/02 05:09:04;;;;;;;31.35;14.85;;;10.30;99.20;;;;;;5153981;27;20031;-79
2022/01/02 05:11:30;;;;;;;31.42;15.13;;;10.20;99.20;;;;;;5135645;27;20039;-78
2022/01/02 05:13:55;;;;;;;31.23;14.82;;;10.30;99.20;;;;;;5136283;27;20455;-79
2022/01/02 05:16:21;;;;;;;28.48;14.57;;;10.30;99.30;;;;;;5153518;27;20402;-79
2022/01/02 05:18:47;;;;;;;29.98;14.60;;;10.30;99.20;;;;;;5119005;27;20093;-78
2022/01/02 05:21:13;;;;;;;28.00;14.07;;;10.20;99.30;;;;;;5136462;27;20038;-78
2022/01/02 05:23:39;;;;;;;32.65;14.07;;;10.20;99.30;;;;;;5153465;27;20073;-78
2022/01/02 05:26:05;;;;;;;28.88;14.18;;;10.20;99.40;;;;;;5153605;27;20115;-78
2022/01/02 05:28:30;;;;;;;29.05;13.05;;;10.30;99.40;;;;;;5136340;27;20038;-78
2022/01/02 05:30:56;;;;;;;25.08;12.93;;;10.30;99.40;;;;;;5136030;27;20537;-78
2022/01/02 05:33:22;;;;;;;28.67;12.60;;;10.30;99.30;;;;;;5153336;27;20076;-78
2022/01/02 05:35:47;;;;;;;28.17;11.82;;;10.30;99.30;;;;;;5153361;27;20083;-78
2022/01/02 05:38:15;;;;;;;25.95;10.20;;;10.30;99.30;;;;;;5136416;27;20043;-79
2022/01/02 05:40:41;;;;;;;32.95;13.25;;;10.30;99.20;;;;;;5153271;27;20070;-78
2022/01/02 05:43:07;;;;;;;23.35;10.70;;;10.40;99.30;;;;;;5153295;27;20081;-79
2022/01/02 05:45:33;;;;;;;22.50;11.07;;;10.40;99.30;;;;;;5135948;27;20038;-78
2022/01/02 05:48:00;;;;;;;26.98;12.57;;;10.50;99.20;;;;;;5153160;27;20486;-79
2022/01/02 05:50:26;;;;;;;28.73;12.32;;;10.50;99.10;;;;;;5153399;27;20031;-79
2022/01/02 05:52:52;;;;;;;28.25;13.15;;;10.50;99.10;;;;;;5153212;27;20034;-79
2022/01/02 05:55:18;;;;;;;29.38;12.65;;;10.40;99.10;;;;;;5153188;27;20034;-79
2022/01/02 05:57:43;;;;;;;24.77;11.65;;;10.40;99.10;;;;;;5153201;27;20073;-82
2022/01/02 06:00:10;;;;;;;26.25;11.48;;;10.40;99.00;;;;;;5135746;27;20042;-80
2022/01/02 06:02:36;;;;;;;21.63;10.68;;;10.40;99.10;;;;;;5153403;27;20042;-78
2022/01/02 06:05:03;;;;;;;26.23;11.13;;;10.30;99.20;;;;;;5135999;27;20030;-79
2022/01/02 06:07:33;;;;;;;25.30;10.10;;;10.30;99.20;;;;;;5135682;27;20091;-79
2022/01/02 06:10:00;;;;;;;21.65;11.07;;;10.30;99.00;;;;;;5153249;27;20035;-78
2022/01/02 06:12:26;;;;;;;19.23;9.57;;;10.30;99.10;;;;;;5135749;27;20071;-77
2022/01/02 06:14:52;;;;;;;24.25;9.50;;;10.40;99.10;;;;;;5118904;27;20093;-78
2022/01/02 06:17:17;;;;;;;19.10;9.43;;;10.40;99.00;;;;;;5135926;27;20525;-78
2022/01/02 06:19:43;;;;;;;18.67;8.30;;;10.40;99.30;;;;;;5156274;27;20450;-78
2022/01/02 06:22:09;;;;;;;19.40;7.90;;;10.50;99.30;;;;;;5157523;27;20046;-78
2022/01/02 06:24:35;;;;;;;19.63;8.13;;;10.50;99.30;;;;;;5160653;27;20093;-77
2022/01/02 06:27:00;;;;;;;16.42;7.70;;;10.50;99.30;;;;;;5159809;27;20034;-78
2022/01/02 06:29:26;;;;;;;14.57;7.20;;;10.50;99.10;;;;;;5160027;27;20117;-78
2022/01/02 06:31:52;;;;;;;15.30;7.03;;;10.50;99.10;;;;;;5160163;27;20424;-78
2022/01/02 06:34:17;;;;;;;19.50;8.18;;;10.50;99.10;;;;;;5160084;27;20046;-79
2022/01/02 06:36:43;;;;;;;20.52;6.88;;;10.60;98.90;;;;;;5160095;27;20038;-79
2022/01/02 06:39:09;;;;;;;12.85;6.88;;;10.60;98.80;;;;;;5160268;27;20053;-78
2022/01/02 06:41:35;;;;;;;18.15;6.22;;;10.60;98.80;;;;;;5142700;27;20492;-77
2022/01/02 06:44:00;;;;;;;19.83;6.20;;;10.60;98.80;;;;;;5159899;27;20071;-78
2022/01/02 06:46:26;;;;;;;12.23;5.53;;;10.60;98.70;;;;;;5159800;27;20244;-78
2022/01/02 06:48:52;;;;;;;11.68;5.22;;;10.70;98.50;;;;;;5142603;27;20038;-78
2022/01/02 06:51:17;;;;;;;14.25;5.80;;;10.80;98.40;;;;;;5159751;27;20130;-79
2022/01/02 06:53:43;;;;;;;11.05;5.82;;;10.80;98.20;;;;;;5159703;27;20035;-78
2022/01/02 06:56:09;;;;;;;18.23;6.10;;;10.80;98.10;;;;;;5142612;27;20098;-78
2022/01/02 06:58:38;;;;;;;13.93;5.03;;;10.80;98.20;;;;;;5159834;27;20536;-79
2022/01/02 07:01:05;;;;;;;12.90;5.10;;;10.80;98.20;;;;;;5126572;27;20091;-77
2022/01/02 07:03:31;;;;;;;16.50;5.75;;;10.80;98.20;;;;;;5159489;27;20073;-77
2022/01/02 07:05:56;;;;;;;14.57;6.00;;;10.80;98.30;;;;;;5142262;27;20094;-78
2022/01/02 07:08:22;;;;;;;13.75;6.05;;;10.80;98.20;;;;;;5142210;27;20034;-78
2022/01/02 07:10:48;;;;;;;16.08;5.70;;;10.80;98.20;;;;;;5142421;27;20038;-77
2022/01/02 07:13:14;;;;;;;10.52;5.68;;;10.80;98.30;;;;;;5159222;27;20550;-78
2022/01/02 07:15:39;;;;;;;14.52;6.03;;;10.80;98.30;;;;;;5159605;27;20034;-78
2022/01/02 07:18:05;;;;;;;13.52;5.53;;;10.80;98.40;;;;;;5158999;27;20071;-78
2022/01/02 07:20:31;;;;;;;12.32;5.20;;;10.80;98.30;;;;;;5159408;27;20090;-78
2022/01/02 07:22:56;;;;;;;15.23;5.80;;;10.90;98.30;;;;;;5159202;27;20594;-79
2022/01/02 07:25:22;;;;;;;13.18;5.10;;;11.00;98.40;;;;;;5159080;27;20038;-77
2022/01/02 07:27:48;;;;;;;11.60;5.40;;;11.00;98.40;;;;;;5158871;27;20038;-77
2022/01/02 07:30:14;;;;;;;14.35;5.30;;;11.00;98.30;;;;;;5141733;27;20038;-77
2022/01/02 07:32:39;;;;;;;12.70;5.65;;;11.00;98.30;;;;;;5158906;27;20061;-78
2022/01/02 07:35:06;;;;;;;10.63;4.32;;;11.00;98.30;;;;;;5141054;27;20078;-78
2022/01/02 07:37:36;;;;;;;15.35;5.35;;;11.10;98.20;;;;;;5142081;27;20125;-79
2022/01/02 07:40:03;;;;;;;11.93;5.32;;;11.10;98.10;;;;;;5141128;27;20066;-79
2022/01/02 07:42:29;;;;;;;15.30;5.65;;;11.10;98.10;;;;;;5158561;27;20053;-79
2022/01/02 07:44:54;;;;;;;11.57;6.03;;;11.10;98.00;;;;;;5158746;27;20418;-78
2022/01/02 07:47:20;;;;;;;15.73;6.07;;;11.10;98.10;;;;;;5158632;27;20038;-78
2022/01/02 07:49:46;;;;;;;12.30;5.25;;;11.10;98.20;;;;;;5140788;27;20553;-78
2022/01/02 07:52:12;;;;;;;10.30;5.60;;;11.10;98.10;;;;;;5140930;27;20027;-78
2022/01/02 07:54:38;;;;;;;13.68;6.18;;;11.10;98.10;;;;;;5158391;27;20162;-78
2022/01/02 07:57:05;;;;;;;12.75;6.20;;;11.20;98.10;;;;;;5157986;27;20389;-78
2022/01/02 07:59:31;;;;;;;10.50;5.95;;;11.30;98.10;;;;;;5158216;27;20120;-78
2022/01/02 08:01:57;;;;;;;12.63;6.65;;;11.30;97.70;;;;;;5158831;27;20397;-78
2022/01/02 08:04:23;;;;;;;15.98;7.07;;;11.30;97.50;;;;;;5141329;27;20046;-77
2022/01/02 08:06:48;;;;;;;9.30;5.93;;;11.20;97.60;;;;;;5140921;27;20051;-78
2022/01/02 08:09:14;;;;;;;12.02;6.57;;;11.20;97.70;;;;;;5158286;27;20066;-78
2022/01/02 08:11:40;;;;;;;12.38;7.38;;;11.10;97.70;;;;;;5157911;27;20068;-76
2022/01/02 08:14:06;;;;;;;15.30;8.00;;;11.10;97.60;;;;;;5140711;27;20037;-77
2022/01/02 08:16:33;;;;;;;12.45;7.95;;;11.00;97.70;;;;;;5157913;27;20042;-77
2022/01/02 08:18:59;;;;;;;11.82;8.20;;;11.00;97.80;;;;;;5135045;27;20157;-77
2022/01/02 08:21:25;;;;;;;10.63;7.82;;;11.00;97.80;;;;;;5154716;27;20046;-78
2022/01/02 08:23:51;;;;;;;12.93;7.55;;;11.00;97.90;;;;;;5137133;27;20509;-78
2022/01/02 08:26:17;;;;;;;13.98;7.13;;;11.00;97.70;;;;;;5137218;27;20081;-78
2022/01/02 08:28:42;;;;;;;13.85;6.75;;;11.00;97.70;;;;;;5154566;27;20530;-78
2022/01/02 08:31:08;;;;;;;8.27;6.05;;;11.00;97.60;;;;;;5154050;27;20085;-77
2022/01/02 08:33:34;;;;;;;10.52;6.70;;;11.00;97.50;;;;;;5154045;27;20031;-78
2022/01/02 08:35:59;;;;;;;7.55;5.95;;;10.90;97.50;;;;;;5153483;27;20046;-78
2022/01/02 08:38:27;;;;;;;10.00;5.57;;;10.90;97.50;;;;;;5153895;27;20099;-79
2022/01/02 08:40:53;;;;;;;10.52;6.68;;;11.00;97.50;;;;;;5154359;27;20049;-78
2022/01/02 08:43:18;;;;;;;11.23;6.85;;;10.90;97.30;;;;;;5136875;27;20471;-79
2022/01/02 08:45:44;;;;;;;8.90;6.32;;;10.80;97.60;;;;;;5154359;27;20043;-77
2022/01/02 08:48:10;;;;;;;9.30;7.20;;;10.80;97.80;;;;;;5153619;27;20490;-78
2022/01/02 08:50:35;;;;;;;11.70;8.05;;;10.80;97.70;;;;;;5153500;27;20478;-77
2022/01/02 08:53:01;;;;;;;10.63;7.68;;;10.70;98.00;;;;;;5153502;27;20035;-77
2022/01/02 08:55:27;;;;;;;8.60;6.63;;;10.60;98.00;;;;;;5136796;27;20031;-77
2022/01/02 08:57:52;;;;;;;10.80;8.00;;;10.60;98.00;;;;;;5154110;27;20034;-77
2022/01/02 09:00:18;;;;;;;13.25;9.77;;;10.60;98.00;;;;;;5153780;27;20490;-77
2022/01/02 09:02:44;;;;;;;14.52;9.57;;;10.60;98.00;;;;;;5136550;27;20444;-77
2022/01/02 09:05:10;;;;;;;15.43;10.85;;;10.60;98.10;;;;;;5136535;27;20081;-77
2022/01/02 09:07:35;;;;;;;18.25;15.50;;;10.60;98.20;;;;;;5153789;27;20070;-78
2022/01/02 09:10:03;;;;;;;16.88;14.57;;;10.60;98.30;;;;;;5136460;27;20039;-77
2022/01/02 09:12:29;;;;;;;15.77;11.90;;;10.50;98.30;;;;;;5136623;27;20049;-78
2022/01/02 09:14:54;;;;;;;18.27;11.30;;;10.60;98.30;;;;;;5153753;27;20031;-77
2022/01/02 09:17:20;;;;;;;15.10;12.75;;;10.50;98.20;;;;;;5153691;27;20046;-78
2022/01/02 09:19:48;;;;;;;18.20;15.00;;;10.50;98.10;;;;;;5153595;27;20066;-77
2022/01/02 09:22:14;;;;;;;21.65;15.32;;;10.50;98.10;;;;;;5153622;27;20043;-77
2022/01/02 09:24:40;;;;;;;20.10;17.65;;;10.50;98.30;;;;;;5153585;27;20035;-77
2022/01/02 09:27:06;;;;;;;14.48;9.02;;;10.50;98.30;;;;;;5153509;27;20438;-77
2022/01/02 09:29:32;;;;;;;13.18;11.82;;;10.50;98.30;;;;;;5153844;27;20031;-78
2022/01/02 09:31:58;;;;;;;11.65;10.45;;;10.40;98.40;;;;;;5153844;27;20390;-77
2022/01/02 09:34:24;;;;;;;15.75;10.98;;;10.50;98.30;;;;;;5136321;27;20487;-77
2022/01/02 09:36:50;;;;;;;13.57;9.30;;;10.50;98.40;;;;;;5153714;27;20041;-77
2022/01/02 09:39:16;;;;;;;12.77;9.27;;;10.50;98.40;;;;;;5153686;27;20042;-77
2022/01/02 09:41:41;;;;;;;13.48;10.05;;;10.50;98.50;;;;;;5136107;27;20521;-76
2022/01/02 09:44:07;;;;;;;13.70;10.13;;;10.50;98.50;;;;;;5152399;27;20035;-77
2022/01/02 09:46:33;;;;;;;12.02;9.80;;;10.50;98.30;;;;;;5153036;27;20087;-78
2022/01/02 09:49:05;;;;;;;15.02;11.13;;;10.60;98.30;;;;;;5152909;27;20478;-78
2022/01/02 09:51:31;;;;;;;14.50;11.20;;;10.60;98.20;;;;;;5150582;27;20578;-78
2022/01/02 09:53:57;;;;;;;13.60;8.80;;;10.50;98.40;;;;;;5152980;27;20137;-78
2022/01/02 09:56:23;;;;;;;15.25;11.75;;;10.50;98.40;;;;;;5152706;27;20039;-77
2022/01/02 09:58:49;;;;;;;15.20;10.75;;;10.60;98.30;;;;;;5139790;27;20147;-77
2022/01/02 10:01:23;;;;;;;16.00;10.82;;;10.50;98.30;;;;;;5156447;27;20083;-78
2022/01/02 10:03:54;;;;;;;13.43;11.25;;;10.60;98.30;;;;;;5157380;27;20077;-76
2022/01/02 10:06:36;;;;;;;19.02;12.27;;;10.60;98.20;;;;;;5157222;27;20042;-76
2022/01/02 10:09:02;;;;;;;25.63;18.45;;;10.60;98.30;;;;;;5151514;27;20439;-78
2022/01/02 10:11:28;;;;;;;24.25;12.35;;;10.60;98.10;;;;;;5151708;27;20095;-79
2022/01/02 10:13:58;;;;;;;13.77;9.85;;;10.50;98.00;;;;;;5117190;27;20047;-79
2022/01/02 10:16:39;;;;;;;22.25;12.10;;;10.60;97.80;;;;;;5151460;27;20123;-80
2022/01/02 10:19:21;;;;;;;16.50;11.20;;;10.60;97.90;;;;;;5138085;27;20058;-78
2022/01/02 10:21:52;;;;;;;20.00;8.02;;;10.60;97.80;;;;;;5139580;27;20030;-78
2022/01/02 10:24:30;;;;;;;16.60;8.95;;;10.60;97.80;;;;;;5156851;27;20542;-78
2022/01/02 10:27:07;;;;;;;18.08;8.52;;;10.70;97.50;;;;;;5156909;27;20053;-77
2022/01/02 10:29:57;;;;;;;14.10;7.80;;;10.60;97.60;;;;;;5156952;27;20099;-78
2022/01/02 10:32:39;;;;;;;21.75;7.28;;;10.70;97.50;;;;;;5156919;27;20035;-77
2022/01/02 10:35:11;;;;;;;19.13;7.63;;;10.70;97.30;;;;;;5157247;27;20052;-78
2022/01/02 10:37:38;;;;;;;18.63;7.32;;;10.80;97.10;;;;;;5139572;27;20046;-79
2022/01/02 10:40:05;;;;;;;19.17;7.18;;;10.80;96.90;;;;;;5156583;27;20337;-79
2022/01/02 10:42:41;;;;;;;20.45;6.65;;;10.80;97.10;;;;;;5156497;27;20129;-79
2022/01/02 10:45:07;;;;;;;19.52;6.45;;;11.00;96.70;;;;;;5156529;27;20043;-79
2022/01/02 10:47:33;;;;;;;19.10;6.85;;;11.00;96.70;;;;;;5156371;27;20554;-79
2022/01/02 10:50:07;;;;;;;18.55;6.68;;;11.00;96.40;;;;;;5156016;27;20038;-79
2022/01/02 10:52:37;;;;;;;22.05;6.82;;;11.10;96.10;;;;;;5156422;27;20034;-79
2022/01/02 10:55:17;;;;;;;18.58;6.53;;;11.20;95.90;;;;;;5139106;27;20104;-79
2022/01/02 10:57:43;;;;;;;15.07;5.50;;;11.30;95.40;;;;;;5139000;27;20043;-81
2022/01/02 11:00:10;;;;;;;22.50;6.63;;;11.40;95.30;;;;;;5156343;27;20100;-80
2022/01/02 11:02:38;;;;;;;19.83;6.72;;;11.50;95.00;;;;;;5156156;27;20039;-80
2022/01/02 11:05:12;;;;;;;22.50;6.88;;;11.50;94.80;;;;;;5138918;27;20038;-79
2022/01/02 11:07:38;;;;;;;19.77;5.68;;;11.60;94.60;;;;;;5155934;27;20049;-80
2022/01/02 11:10:04;;;;;;;15.40;6.18;;;11.60;94.60;;;;;;5137620;27;20038;-79
2022/01/02 11:12:31;;;;;;;19.88;6.53;;;11.50;94.20;;;;;;5155726;27;20041;-80
2022/01/02 11:14:57;;;;;;;14.70;5.05;;;11.50;93.80;;;;;;5155773;27;20402;-79
2022/01/02 11:17:24;;;;;;;22.42;6.55;;;11.50;94.00;;;;;;5155995;27;20039;-79
2022/01/02 11:19:49;;;;;;;24.25;7.38;;;11.50;93.90;;;;;;5155697;27;20143;-79
2022/01/02 11:22:34;;;;;;;22.88;6.78;;;11.40;93.50;;;;;;5138611;27;20076;-78
2022/01/02 11:25:22;;;;;;;15.68;5.47;;;11.40;93.30;;;;;;5155767;27;20486;-79
2022/01/02 11:28:00;;;;;;;19.20;6.05;;;11.30;93.30;;;;;;5138291;27;20042;-80
2022/01/02 11:30:32;;;;;;;19.83;6.22;;;11.30;93.60;;;;;;5155598;27;20103;-79
2022/01/02 11:33:12;;;;;;;16.00;5.68;;;11.30;93.80;;;;;;5155949;27;20520;-79
2022/01/02 11:35:41;;;;;;;17.50;5.38;;;11.40;93.50;;;;;;5155846;27;20039;-78
2022/01/02 11:38:07;;;;;;;22.15;5.28;;;11.40;93.40;;;;;;5155518;27;20038;-78
2022/01/02 11:41:05;;;;;;;20.42;6.25;;;11.40;93.40;;;;;;5155326;27;20039;-79
2022/01/02 11:43:49;;;;;;;17.02;4.95;;;11.40;93.40;;;;;;5110382;27;20047;-78
2022/01/02 11:46:18;;;;;;;13.40;5.03;;;11.50;93.10;;;;;;5155220;27;20428;-80
2022/01/02 11:49:15;;;;;;;17.33;5.18;;;11.50;93.00;;;;;;5155446;27;20337;-79
2022/01/02 11:51:50;;;;;;;14.80;4.22;;;11.50;92.80;;;;;;5137813;27;20039;-78
2022/01/02 11:54:49;;;;;;;;;;;11.60;92.70;;;;;;5155112;27;20041;-79
2022/01/02 11:57:18;;;;;;;24.15;6.45;;;11.60;92.30;;;;;;5153499;27;19919;-78
2022/01/02 11:59:44;;;;;;;18.67;5.25;;;11.50;92.20;;;;;;5137849;27;20049;-78
2022/01/02 12:02:26;;;;;;;17.38;5.57;;;11.50;92.40;;;;;;5154989;27;20578;-79
2022/01/02 12:07:45;;;;;;;;;;;11.60;92.10;;;;;;5155227;27;20064;-80
2022/01/02 12:10:13;;;;;;;14.88;4.70;;;11.50;91.90;;;;;;5137527;27;19915;-78
2022/01/02 12:13:02;;;;;;;19.27;5.10;;;11.60;92.00;;;;;;5154765;27;20045;-79
2022/01/02 12:15:31;;;;;;;18.52;4.75;;;11.50;91.50;;;;;;5137404;27;20079;-78
2022/01/02 12:18:19;;;;;;;19.55;4.30;;;11.60;91.00;;;;;;5137156;27;20054;-77
2022/01/02 12:20:54;;;;;;;21.10;4.93;;;11.60;90.90;;;;;;5154331;27;20047;-78
2022/01/02 12:23:35;;;;;;;11.85;4.53;;;11.70;90.70;;;;;;5154806;27;20534;-79
2022/01/02 12:26:06;;;;;;;14.40;4.22;;;11.70;90.70;;;;;;5154537;27;20389;-78
2022/01/02 12:28:39;;;;;;;13.60;4.95;;;11.70;90.40;;;;;;5154652;27;20500;-79
2022/01/02 12:31:06;;;;;;;16.48;4.28;;;11.60;90.30;;;;;;5154413;27;20046;-78
2022/01/02 12:33:33;;;;;;;15.40;3.50;;;11.60;90.10;;;;;;5137464;27;20035;-78
2022/01/02 12:36:28;;;;;;;17.08;5.45;;;11.50;90.70;;;;;;5137237;27;20143;-79
2022/01/02 12:38:58;;;;;;;;;;;11.50;90.60;;;;;;5130764;27;20046;-77
2022/01/02 12:41:29;;;;;;;58.05;10.40;;;11.50;90.50;;;;;;5149935;27;19922;-78
2022/01/02 12:43:59;;;;;;;120.07;17.27;;;11.40;90.30;;;;;;5136900;27;20031;-78
2022/01/02 12:46:37;;;;;;;26.00;5.15;;;11.40;90.40;;;;;;5154118;27;20043;-78
2022/01/02 12:49:06;;;;;;;16.38;3.90;;;11.40;90.40;;;;;;5153941;27;20038;-78